sensor_id;sensor_type;location;lat;lon;timestamp;P1;durP1;ratioP1;P2;durP2;ratioP2
40653;SDS011;26344;45.532;9.232;2023-02-28T00:01:28;13.80;;;7.43;;
40653;SDS011;26344;45.532;9.232;2023-02-28T00:03:54;14.20;;;7.28;;
40653;SDS011;26344;45.532;9.232;2023-02-28T00:06:21;12.63;;;7.10;;
40653;SDS011;26344;45.532;9.232;2023-02-28T00:08:47;10.70;;;6.70;;
40653;SDS011;26344;45.532;9.232;2023-02-28T00:11:14;14.98;;;7.03;;
40653;SDS011;26344;45.532;9.232;2023-02-28T00:13:42;10.35;;;6.82;;
40653;SDS011;26344;45.532;9.232;2023-02-28T00:16:12;9.00;;;6.32;;
40653;SDS011;26344;45.532;9.232;2023-02-28T00:18:38;11.30;;;6.43;;
40653;SDS011;26344;45.532;9.232;2023-02-28T00:21:04;11.15;;;5.57;;
40653;SDS011;26344;45.532;9.232;2023-02-28T00:23:30;10.88;;;6.10;;
40653;SDS011;26344;45.532;9.232;2023-02-28T00:25:56;12.10;;;5.30;;
40653;SDS011;26344;45.532;9.232;2023-02-28T00:28:22;9.65;;;5.20;;
40653;SDS011;26344;45.532;9.232;2023-02-28T00:30:48;9.60;;;5.30;;
40653;SDS011;26344;45.532;9.232;2023-02-28T00:33:15;11.00;;;5.43;;
40653;SDS011;26344;45.532;9.232;2023-02-28T00:35:40;10.05;;;5.40;;
40653;SDS011;26344;45.532;9.232;2023-02-28T00:38:06;9.52;;;5.00;;
40653;SDS011;26344;45.532;9.232;2023-02-28T00:40:33;10.85;;;5.22;;
40653;SDS011;26344;45.532;9.232;2023-02-28T00:42:59;8.95;;;5.03;;
40653;SDS011;26344;45.532;9.232;2023-02-28T00:45:25;9.00;;;5.35;;
40653;SDS011;26344;45.532;9.232;2023-02-28T00:47:51;12.55;;;5.30;;
40653;SDS011;26344;45.532;9.232;2023-02-28T00:50:17;7.43;;;5.07;;
40653;SDS011;26344;45.532;9.232;2023-02-28T00:52:43;10.77;;;5.22;;
40653;SDS011;26344;45.532;9.232;2023-02-28T00:55:09;9.38;;;5.18;;
40653;SDS011;26344;45.532;9.232;2023-02-28T00:57:36;11.68;;;5.25;;
40653;SDS011;26344;45.532;9.232;2023-02-28T01:00:02;8.57;;;5.55;;
40653;SDS011;26344;45.532;9.232;2023-02-28T01:02:29;8.68;;;4.80;;
40653;SDS011;26344;45.532;9.232;2023-02-28T01:04:55;10.98;;;5.53;;
40653;SDS011;26344;45.532;9.232;2023-02-28T01:07:21;11.52;;;5.50;;
40653;SDS011;26344;45.532;9.232;2023-02-28T01:09:47;13.27;;;5.38;;
40653;SDS011;26344;45.532;9.232;2023-02-28T01:12:13;13.43;;;5.82;;
40653;SDS011;26344;45.532;9.232;2023-02-28T01:14:39;11.32;;;5.50;;
40653;SDS011;26344;45.532;9.232;2023-02-28T01:17:05;12.77;;;5.78;;
40653;SDS011;26344;45.532;9.232;2023-02-28T01:19:31;8.93;;;5.68;;
40653;SDS011;26344;45.532;9.232;2023-02-28T01:22:00;8.88;;;5.15;;
40653;SDS011;26344;45.532;9.232;2023-02-28T01:24:26;12.38;;;5.60;;
40653;SDS011;26344;45.532;9.232;2023-02-28T01:26:52;8.75;;;5.40;;
40653;SDS011;26344;45.532;9.232;2023-02-28T01:29:19;10.63;;;5.78;;
40653;SDS011;26344;45.532;9.232;2023-02-28T01:31:45;9.65;;;5.47;;
40653;SDS011;26344;45.532;9.232;2023-02-28T01:34:11;11.48;;;6.03;;
40653;SDS011;26344;45.532;9.232;2023-02-28T01:36:37;12.43;;;6.63;;
40653;SDS011;26344;45.532;9.232;2023-02-28T01:39:03;9.57;;;6.55;;
40653;SDS011;26344;45.532;9.232;2023-02-28T01:41:31;11.48;;;6.50;;
40653;SDS011;26344;45.532;9.232;2023-02-28T01:44:04;8.93;;;6.35;;
40653;SDS011;26344;45.532;9.232;2023-02-28T01:46:32;10.93;;;6.80;;
40653;SDS011;26344;45.532;9.232;2023-02-28T01:51:29;10.05;;;6.65;;
40653;SDS011;26344;45.532;9.232;2023-02-28T01:54:07;11.63;;;6.60;;
40653;SDS011;26344;45.532;9.232;2023-02-28T01:56:38;10.68;;;6.50;;
40653;SDS011;26344;45.532;9.232;2023-02-28T01:59:07;9.48;;;6.43;;
40653;SDS011;26344;45.532;9.232;2023-02-28T02:01:33;9.85;;;6.57;;
40653;SDS011;26344;45.532;9.232;2023-02-28T02:04:01;15.52;;;6.28;;
40653;SDS011;26344;45.532;9.232;2023-02-28T02:06:33;12.13;;;6.57;;
40653;SDS011;26344;45.532;9.232;2023-02-28T02:09:00;10.95;;;6.57;;
40653;SDS011;26344;45.532;9.232;2023-02-28T02:11:26;10.93;;;6.43;;
40653;SDS011;26344;45.532;9.232;2023-02-28T02:21:49;7.95;;;5.70;;
40653;SDS011;26344;45.532;9.232;2023-02-28T02:35:12;10.07;;;5.75;;
40653;SDS011;26344;45.532;9.232;2023-02-28T02:37:42;9.32;;;5.65;;
40653;SDS011;26344;45.532;9.232;2023-02-28T02:40:11;12.20;;;6.13;;
40653;SDS011;26344;45.532;9.232;2023-02-28T02:43:00;12.02;;;6.05;;
40653;SDS011;26344;45.532;9.232;2023-02-28T02:45:29;10.27;;;5.82;;
40653;SDS011;26344;45.532;9.232;2023-02-28T02:48:00;9.20;;;5.55;;
40653;SDS011;26344;45.532;9.232;2023-02-28T02:50:29;10.88;;;5.60;;
40653;SDS011;26344;45.532;9.232;2023-02-28T02:52:57;9.90;;;6.13;;
40653;SDS011;26344;45.532;9.232;2023-02-28T02:55:25;10.73;;;6.03;;
40653;SDS011;26344;45.532;9.232;2023-02-28T02:57:55;12.40;;;6.13;;
40653;SDS011;26344;45.532;9.232;2023-02-28T03:00:26;15.13;;;6.25;;
40653;SDS011;26344;45.532;9.232;2023-02-28T03:02:53;9.88;;;5.68;;
40653;SDS011;26344;45.532;9.232;2023-02-28T03:05:24;11.30;;;6.55;;
40653;SDS011;26344;45.532;9.232;2023-02-28T03:07:51;12.55;;;6.10;;
40653;SDS011;26344;45.532;9.232;2023-02-28T03:10:27;11.48;;;5.97;;
40653;SDS011;26344;45.532;9.232;2023-02-28T03:12:58;11.00;;;6.47;;
40653;SDS011;26344;45.532;9.232;2023-02-28T03:15:28;10.07;;;6.47;;
40653;SDS011;26344;45.532;9.232;2023-02-28T03:18:03;10.27;;;6.25;;
40653;SDS011;26344;45.532;9.232;2023-02-28T03:25:41;14.40;;;6.70;;
40653;SDS011;26344;45.532;9.232;2023-02-28T03:28:16;11.20;;;6.40;;
40653;SDS011;26344;45.532;9.232;2023-02-28T03:30:49;11.35;;;6.10;;
40653;SDS011;26344;45.532;9.232;2023-02-28T03:33:20;12.32;;;6.60;;
40653;SDS011;26344;45.532;9.232;2023-02-28T03:35:50;10.07;;;6.05;;
40653;SDS011;26344;45.532;9.232;2023-02-28T03:38:27;10.23;;;6.35;;
40653;SDS011;26344;45.532;9.232;2023-02-28T03:40:57;11.10;;;6.45;;
40653;SDS011;26344;45.532;9.232;2023-02-28T03:43:27;10.40;;;6.05;;
40653;SDS011;26344;45.532;9.232;2023-02-28T03:45:54;9.75;;;6.30;;
40653;SDS011;26344;45.532;9.232;2023-02-28T03:48:31;10.65;;;6.10;;
40653;SDS011;26344;45.532;9.232;2023-02-28T03:50:57;12.70;;;6.22;;
40653;SDS011;26344;45.532;9.232;2023-02-28T03:53:25;11.07;;;6.40;;
40653;SDS011;26344;45.532;9.232;2023-02-28T03:55:56;8.68;;;5.80;;
40653;SDS011;26344;45.532;9.232;2023-02-28T03:58:32;10.63;;;5.95;;
40653;SDS011;26344;45.532;9.232;2023-02-28T04:01:08;9.73;;;6.28;;
40653;SDS011;26344;45.532;9.232;2023-02-28T04:03:36;9.82;;;6.28;;
40653;SDS011;26344;45.532;9.232;2023-02-28T04:06:02;14.65;;;6.07;;
40653;SDS011;26344;45.532;9.232;2023-02-28T04:08:29;13.15;;;6.57;;
40653;SDS011;26344;45.532;9.232;2023-02-28T04:10:57;8.93;;;5.85;;
40653;SDS011;26344;45.532;9.232;2023-02-28T04:13:24;9.73;;;5.70;;
40653;SDS011;26344;45.532;9.232;2023-02-28T04:15:50;12.38;;;6.45;;
40653;SDS011;26344;45.532;9.232;2023-02-28T04:18:16;11.93;;;6.07;;
40653;SDS011;26344;45.532;9.232;2023-02-28T04:20:42;8.90;;;6.28;;
40653;SDS011;26344;45.532;9.232;2023-02-28T04:23:08;9.10;;;5.90;;
40653;SDS011;26344;45.532;9.232;2023-02-28T04:25:34;10.25;;;6.05;;
40653;SDS011;26344;45.532;9.232;2023-02-28T04:28:00;9.00;;;5.78;;
40653;SDS011;26344;45.532;9.232;2023-02-28T04:30:26;10.27;;;6.22;;
40653;SDS011;26344;45.532;9.232;2023-02-28T04:32:54;9.93;;;6.20;;
40653;SDS011;26344;45.532;9.232;2023-02-28T04:35:23;11.13;;;6.05;;
40653;SDS011;26344;45.532;9.232;2023-02-28T04:37:49;8.25;;;5.55;;
40653;SDS011;26344;45.532;9.232;2023-02-28T04:40:15;9.02;;;5.78;;
40653;SDS011;26344;45.532;9.232;2023-02-28T04:42:41;9.55;;;5.63;;
40653;SDS011;26344;45.532;9.232;2023-02-28T04:45:07;10.52;;;5.75;;
40653;SDS011;26344;45.532;9.232;2023-02-28T04:47:35;7.47;;;5.05;;
40653;SDS011;26344;45.532;9.232;2023-02-28T04:50:01;9.38;;;6.18;;
40653;SDS011;26344;45.532;9.232;2023-02-28T04:52:27;9.27;;;6.22;;
40653;SDS011;26344;45.532;9.232;2023-02-28T04:55:05;10.05;;;6.50;;
40653;SDS011;26344;45.532;9.232;2023-02-28T04:57:31;10.32;;;6.50;;
40653;SDS011;26344;45.532;9.232;2023-02-28T04:59:57;10.27;;;6.13;;
40653;SDS011;26344;45.532;9.232;2023-02-28T05:02:23;9.32;;;6.13;;
40653;SDS011;26344;45.532;9.232;2023-02-28T05:04:49;11.73;;;6.68;;
40653;SDS011;26344;45.532;9.232;2023-02-28T05:07:15;13.20;;;6.05;;
40653;SDS011;26344;45.532;9.232;2023-02-28T05:09:41;8.48;;;6.07;;
40653;SDS011;26344;45.532;9.232;2023-02-28T05:12:08;13.23;;;6.38;;
40653;SDS011;26344;45.532;9.232;2023-02-28T05:14:34;11.18;;;5.85;;
40653;SDS011;26344;45.532;9.232;2023-02-28T05:17:04;9.25;;;6.03;;
40653;SDS011;26344;45.532;9.232;2023-02-28T05:19:30;10.52;;;6.60;;
40653;SDS011;26344;45.532;9.232;2023-02-28T05:21:56;10.43;;;6.40;;
40653;SDS011;26344;45.532;9.232;2023-02-28T05:24:22;10.32;;;6.50;;
40653;SDS011;26344;45.532;9.232;2023-02-28T05:26:49;13.73;;;6.97;;
40653;SDS011;26344;45.532;9.232;2023-02-28T05:29:16;8.45;;;5.45;;
40653;SDS011;26344;45.532;9.232;2023-02-28T05:31:42;11.35;;;6.35;;
40653;SDS011;26344;45.532;9.232;2023-02-28T05:34:08;13.57;;;6.63;;
40653;SDS011;26344;45.532;9.232;2023-02-28T05:36:37;8.80;;;5.90;;
40653;SDS011;26344;45.532;9.232;2023-02-28T05:39:04;7.85;;;5.90;;
40653;SDS011;26344;45.532;9.232;2023-02-28T05:41:31;12.98;;;6.20;;
40653;SDS011;26344;45.532;9.232;2023-02-28T05:43:57;12.18;;;6.25;;
40653;SDS011;26344;45.532;9.232;2023-02-28T05:46:27;9.68;;;6.40;;
40653;SDS011;26344;45.532;9.232;2023-02-28T05:48:54;9.18;;;6.43;;
40653;SDS011;26344;45.532;9.232;2023-02-28T05:51:21;10.98;;;7.00;;
40653;SDS011;26344;45.532;9.232;2023-02-28T05:53:47;9.38;;;6.30;;
40653;SDS011;26344;45.532;9.232;2023-02-28T05:56:14;12.18;;;6.50;;
40653;SDS011;26344;45.532;9.232;2023-02-28T05:58:40;9.85;;;6.53;;
40653;SDS011;26344;45.532;9.232;2023-02-28T06:01:19;11.80;;;7.00;;
40653;SDS011;26344;45.532;9.232;2023-02-28T06:03:46;13.63;;;6.95;;
40653;SDS011;26344;45.532;9.232;2023-02-28T06:06:12;10.45;;;6.78;;
40653;SDS011;26344;45.532;9.232;2023-02-28T06:08:38;9.98;;;7.50;;
40653;SDS011;26344;45.532;9.232;2023-02-28T06:11:04;12.68;;;6.93;;
40653;SDS011;26344;45.532;9.232;2023-02-28T06:13:31;12.98;;;7.20;;
40653;SDS011;26344;45.532;9.232;2023-02-28T06:16:00;10.65;;;7.25;;
40653;SDS011;26344;45.532;9.232;2023-02-28T06:18:26;10.27;;;7.20;;
40653;SDS011;26344;45.532;9.232;2023-02-28T06:20:53;10.88;;;7.13;;
40653;SDS011;26344;45.532;9.232;2023-02-28T06:23:19;11.15;;;7.53;;
40653;SDS011;26344;45.532;9.232;2023-02-28T06:25:45;14.00;;;7.88;;
40653;SDS011;26344;45.532;9.232;2023-02-28T06:28:11;11.43;;;7.40;;
40653;SDS011;26344;45.532;9.232;2023-02-28T06:30:40;12.35;;;7.28;;
40653;SDS011;26344;45.532;9.232;2023-02-28T06:33:06;11.77;;;7.40;;
40653;SDS011;26344;45.532;9.232;2023-02-28T06:35:32;12.13;;;8.45;;
40653;SDS011;26344;45.532;9.232;2023-02-28T06:37:59;11.98;;;7.53;;
40653;SDS011;26344;45.532;9.232;2023-02-28T06:40:25;13.52;;;7.95;;
40653;SDS011;26344;45.532;9.232;2023-02-28T06:42:51;11.52;;;7.40;;
40653;SDS011;26344;45.532;9.232;2023-02-28T06:45:17;13.48;;;7.85;;
40653;SDS011;26344;45.532;9.232;2023-02-28T06:47:43;14.98;;;8.73;;
40653;SDS011;26344;45.532;9.232;2023-02-28T06:50:10;14.43;;;8.68;;
40653;SDS011;26344;45.532;9.232;2023-02-28T06:52:36;12.98;;;8.55;;
40653;SDS011;26344;45.532;9.232;2023-02-28T06:55:06;16.30;;;8.73;;
40653;SDS011;26344;45.532;9.232;2023-02-28T06:57:33;22.25;;;8.93;;
40653;SDS011;26344;45.532;9.232;2023-02-28T07:00:00;13.93;;;8.65;;
40653;SDS011;26344;45.532;9.232;2023-02-28T07:02:26;14.52;;;8.43;;
40653;SDS011;26344;45.532;9.232;2023-02-28T07:04:53;12.88;;;8.65;;
40653;SDS011;26344;45.532;9.232;2023-02-28T07:07:19;14.93;;;9.10;;
40653;SDS011;26344;45.532;9.232;2023-02-28T07:09:45;14.80;;;9.68;;
40653;SDS011;26344;45.532;9.232;2023-02-28T07:12:11;20.00;;;9.05;;
40653;SDS011;26344;45.532;9.232;2023-02-28T07:14:41;14.63;;;9.30;;
40653;SDS011;26344;45.532;9.232;2023-02-28T07:17:10;16.40;;;9.68;;
40653;SDS011;26344;45.532;9.232;2023-02-28T07:19:37;17.23;;;9.77;;
40653;SDS011;26344;45.532;9.232;2023-02-28T07:22:04;18.50;;;9.98;;
40653;SDS011;26344;45.532;9.232;2023-02-28T07:24:30;18.52;;;9.88;;
40653;SDS011;26344;45.532;9.232;2023-02-28T07:26:56;17.38;;;9.18;;
40653;SDS011;26344;45.532;9.232;2023-02-28T07:29:24;14.43;;;8.80;;
40653;SDS011;26344;45.532;9.232;2023-02-28T07:31:50;14.00;;;9.25;;
40653;SDS011;26344;45.532;9.232;2023-02-28T07:34:18;20.73;;;10.13;;
40653;SDS011;26344;45.532;9.232;2023-02-28T07:36:43;16.23;;;10.15;;
40653;SDS011;26344;45.532;9.232;2023-02-28T07:39:10;15.60;;;10.38;;
40653;SDS011;26344;45.532;9.232;2023-02-28T07:41:36;20.42;;;10.13;;
40653;SDS011;26344;45.532;9.232;2023-02-28T07:44:08;20.48;;;10.85;;
40653;SDS011;26344;45.532;9.232;2023-02-28T07:46:35;18.92;;;10.57;;
40653;SDS011;26344;45.532;9.232;2023-02-28T07:49:02;17.10;;;10.30;;
40653;SDS011;26344;45.532;9.232;2023-02-28T07:51:30;15.15;;;9.80;;
40653;SDS011;26344;45.532;9.232;2023-02-28T07:53:57;21.43;;;10.07;;
40653;SDS011;26344;45.532;9.232;2023-02-28T07:56:23;20.58;;;10.75;;
40653;SDS011;26344;45.532;9.232;2023-02-28T07:58:49;21.23;;;10.60;;
40653;SDS011;26344;45.532;9.232;2023-02-28T08:01:16;24.80;;;11.35;;
40653;SDS011;26344;45.532;9.232;2023-02-28T08:03:44;25.17;;;11.02;;
40653;SDS011;26344;45.532;9.232;2023-02-28T08:06:15;17.55;;;11.23;;
40653;SDS011;26344;45.532;9.232;2023-02-28T08:08:41;20.08;;;10.93;;
40653;SDS011;26344;45.532;9.232;2023-02-28T08:11:07;19.73;;;10.35;;
40653;SDS011;26344;45.532;9.232;2023-02-28T08:13:33;15.93;;;10.10;;
40653;SDS011;26344;45.532;9.232;2023-02-28T08:16:00;21.75;;;10.50;;
40653;SDS011;26344;45.532;9.232;2023-02-28T08:18:26;21.25;;;10.73;;
40653;SDS011;26344;45.532;9.232;2023-02-28T08:20:52;17.13;;;10.30;;
40653;SDS011;26344;45.532;9.232;2023-02-28T08:23:19;18.48;;;9.90;;
40653;SDS011;26344;45.532;9.232;2023-02-28T08:25:52;18.42;;;10.52;;
40653;SDS011;26344;45.532;9.232;2023-02-28T08:28:18;17.92;;;10.57;;
40653;SDS011;26344;45.532;9.232;2023-02-28T08:30:45;16.27;;;10.18;;
40653;SDS011;26344;45.532;9.232;2023-02-28T08:33:11;15.40;;;9.55;;
40653;SDS011;26344;45.532;9.232;2023-02-28T08:35:37;15.77;;;10.50;;
40653;SDS011;26344;45.532;9.232;2023-02-28T08:38:12;20.48;;;10.82;;
40653;SDS011;26344;45.532;9.232;2023-02-28T08:40:38;21.30;;;10.55;;
40653;SDS011;26344;45.532;9.232;2023-02-28T08:43:05;21.13;;;10.50;;
40653;SDS011;26344;45.532;9.232;2023-02-28T08:45:31;16.25;;;10.68;;
40653;SDS011;26344;45.532;9.232;2023-02-28T08:47:57;19.10;;;11.68;;
40653;SDS011;26344;45.532;9.232;2023-02-28T08:50:26;18.60;;;11.73;;
40653;SDS011;26344;45.532;9.232;2023-02-28T08:52:52;18.50;;;10.90;;
40653;SDS011;26344;45.532;9.232;2023-02-28T08:55:18;17.17;;;10.80;;
40653;SDS011;26344;45.532;9.232;2023-02-28T08:57:44;19.40;;;11.45;;
40653;SDS011;26344;45.532;9.232;2023-02-28T09:00:10;27.70;;;11.85;;
40653;SDS011;26344;45.532;9.232;2023-02-28T09:02:38;14.13;;;10.45;;
40653;SDS011;26344;45.532;9.232;2023-02-28T09:05:04;14.95;;;10.68;;
40653;SDS011;26344;45.532;9.232;2023-02-28T09:07:31;19.38;;;10.25;;
40653;SDS011;26344;45.532;9.232;2023-02-28T09:09:57;15.32;;;10.68;;
40653;SDS011;26344;45.532;9.232;2023-02-28T09:12:24;21.00;;;11.35;;
40653;SDS011;26344;45.532;9.232;2023-02-28T09:14:50;16.73;;;10.35;;
40653;SDS011;26344;45.532;9.232;2023-02-28T09:17:17;16.02;;;10.10;;
40653;SDS011;26344;45.532;9.232;2023-02-28T09:19:43;14.00;;;9.57;;
40653;SDS011;26344;45.532;9.232;2023-02-28T09:22:10;18.27;;;10.70;;
40653;SDS011;26344;45.532;9.232;2023-02-28T09:24:36;15.88;;;10.77;;
40653;SDS011;26344;45.532;9.232;2023-02-28T09:27:03;15.38;;;9.88;;
40653;SDS011;26344;45.532;9.232;2023-02-28T09:29:29;14.60;;;9.43;;
40653;SDS011;26344;45.532;9.232;2023-02-28T09:31:55;16.45;;;9.38;;
40653;SDS011;26344;45.532;9.232;2023-02-28T09:34:24;14.85;;;9.60;;
40653;SDS011;26344;45.532;9.232;2023-02-28T09:36:50;15.10;;;10.02;;
40653;SDS011;26344;45.532;9.232;2023-02-28T09:39:21;17.00;;;10.30;;
40653;SDS011;26344;45.532;9.232;2023-02-28T09:41:51;16.05;;;10.02;;
40653;SDS011;26344;45.532;9.232;2023-02-28T09:44:20;13.88;;;9.40;;
40653;SDS011;26344;45.532;9.232;2023-02-28T09:46:51;18.25;;;10.00;;
40653;SDS011;26344;45.532;9.232;2023-02-28T09:49:20;15.43;;;9.45;;
40653;SDS011;26344;45.532;9.232;2023-02-28T09:54:21;16.88;;;10.40;;
40653;SDS011;26344;45.532;9.232;2023-02-28T09:56:49;17.27;;;9.68;;
40653;SDS011;26344;45.532;9.232;2023-02-28T10:04:43;16.15;;;9.95;;
40653;SDS011;26344;45.532;9.232;2023-02-28T10:10:02;15.02;;;9.45;;
40653;SDS011;26344;45.532;9.232;2023-02-28T10:12:33;14.77;;;9.88;;
40653;SDS011;26344;45.532;9.232;2023-02-28T10:15:01;14.57;;;10.18;;
40653;SDS011;26344;45.532;9.232;2023-02-28T10:17:29;18.10;;;10.60;;
40653;SDS011;26344;45.532;9.232;2023-02-28T10:24:53;17.38;;;10.10;;
40653;SDS011;26344;45.532;9.232;2023-02-28T10:27:22;20.20;;;10.57;;
40653;SDS011;26344;45.532;9.232;2023-02-28T10:29:53;14.18;;;10.30;;
40653;SDS011;26344;45.532;9.232;2023-02-28T10:32:20;17.05;;;11.27;;
40653;SDS011;26344;45.532;9.232;2023-02-28T10:34:59;18.33;;;11.05;;
40653;SDS011;26344;45.532;9.232;2023-02-28T10:37:25;16.05;;;10.65;;
40653;SDS011;26344;45.532;9.232;2023-02-28T10:39:52;13.70;;;10.27;;
40653;SDS011;26344;45.532;9.232;2023-02-28T10:42:28;20.05;;;10.55;;
40653;SDS011;26344;45.532;9.232;2023-02-28T10:45:14;19.17;;;11.00;;
40653;SDS011;26344;45.532;9.232;2023-02-28T10:47:48;13.75;;;10.77;;
40653;SDS011;26344;45.532;9.232;2023-02-28T10:53:05;16.40;;;11.20;;
40653;SDS011;26344;45.532;9.232;2023-02-28T10:55:32;18.63;;;11.40;;
40653;SDS011;26344;45.532;9.232;2023-02-28T10:57:58;17.83;;;11.95;;
40653;SDS011;26344;45.532;9.232;2023-02-28T11:00:24;17.25;;;12.05;;
40653;SDS011;26344;45.532;9.232;2023-02-28T11:02:50;17.50;;;11.77;;
40653;SDS011;26344;45.532;9.232;2023-02-28T11:05:24;16.13;;;12.15;;
40653;SDS011;26344;45.532;9.232;2023-02-28T11:07:51;18.48;;;12.60;;
40653;SDS011;26344;45.532;9.232;2023-02-28T11:10:19;18.13;;;11.98;;
40653;SDS011;26344;45.532;9.232;2023-02-28T11:12:46;16.65;;;11.93;;
40653;SDS011;26344;45.532;9.232;2023-02-28T11:15:21;17.27;;;12.50;;
40653;SDS011;26344;45.532;9.232;2023-02-28T11:18:15;20.33;;;13.07;;
40653;SDS011;26344;45.532;9.232;2023-02-28T11:20:35;18.50;;;12.25;;
40653;SDS011;26344;45.532;9.232;2023-02-28T11:23:02;17.35;;;12.23;;
40653;SDS011;26344;45.532;9.232;2023-02-28T11:25:30;18.58;;;13.95;;
40653;SDS011;26344;45.532;9.232;2023-02-28T11:27:57;21.10;;;12.65;;
40653;SDS011;26344;45.532;9.232;2023-02-28T11:32:52;17.00;;;12.13;;
40653;SDS011;26344;45.532;9.232;2023-02-28T11:35:23;16.27;;;12.00;;
40653;SDS011;26344;45.532;9.232;2023-02-28T11:37:50;17.17;;;12.23;;
40653;SDS011;26344;45.532;9.232;2023-02-28T11:40:17;16.92;;;12.80;;
40653;SDS011;26344;45.532;9.232;2023-02-28T11:50:40;16.80;;;12.43;;
40653;SDS011;26344;45.532;9.232;2023-02-28T11:55:45;18.97;;;12.67;;
40653;SDS011;26344;45.532;9.232;2023-02-28T11:58:24;17.98;;;13.15;;
40653;SDS011;26344;45.532;9.232;2023-02-28T12:06:15;19.60;;;13.80;;
40653;SDS011;26344;45.532;9.232;2023-02-28T12:11:12;17.67;;;13.73;;
40653;SDS011;26344;45.532;9.232;2023-02-28T12:21:34;20.25;;;13.75;;
40653;SDS011;26344;45.532;9.232;2023-02-28T12:26:40;19.75;;;13.10;;
40653;SDS011;26344;45.532;9.232;2023-02-28T12:29:51;16.02;;;13.07;;
40653;SDS011;26344;45.532;9.232;2023-02-28T12:32:11;20.88;;;14.00;;
40653;SDS011;26344;45.532;9.232;2023-02-28T12:34:46;19.05;;;12.88;;
40653;SDS011;26344;45.532;9.232;2023-02-28T12:37:15;19.92;;;13.40;;
40653;SDS011;26344;45.532;9.232;2023-02-28T12:42:13;17.05;;;13.13;;
40653;SDS011;26344;45.532;9.232;2023-02-28T12:44:44;17.05;;;12.68;;
40653;SDS011;26344;45.532;9.232;2023-02-28T12:47:13;21.67;;;13.43;;
40653;SDS011;26344;45.532;9.232;2023-02-28T12:52:05;15.80;;;12.93;;
40653;SDS011;26344;45.532;9.232;2023-02-28T12:54:38;16.52;;;13.07;;
40653;SDS011;26344;45.532;9.232;2023-02-28T12:59:57;17.83;;;13.18;;
40653;SDS011;26344;45.532;9.232;2023-02-28T13:10:13;18.60;;;13.20;;
40653;SDS011;26344;45.532;9.232;2023-02-28T13:12:51;18.67;;;13.98;;
40653;SDS011;26344;45.532;9.232;2023-02-28T13:15:19;20.13;;;13.57;;
40653;SDS011;26344;45.532;9.232;2023-02-28T13:17:49;17.48;;;13.52;;
40653;SDS011;26344;45.532;9.232;2023-02-28T13:22:47;19.13;;;13.25;;
40653;SDS011;26344;45.532;9.232;2023-02-28T13:27:59;16.48;;;12.80;;
40653;SDS011;26344;45.532;9.232;2023-02-28T13:35:46;17.63;;;13.57;;
40653;SDS011;26344;45.532;9.232;2023-02-28T13:38:15;18.08;;;13.20;;
40653;SDS011;26344;45.532;9.232;2023-02-28T13:40:41;18.10;;;13.52;;
40653;SDS011;26344;45.532;9.232;2023-02-28T13:43:08;16.30;;;12.77;;
40653;SDS011;26344;45.532;9.232;2023-02-28T13:45:35;15.77;;;13.05;;
40653;SDS011;26344;45.532;9.232;2023-02-28T13:48:24;17.83;;;12.65;;
40653;SDS011;26344;45.532;9.232;2023-02-28T13:50:49;16.65;;;12.68;;
40653;SDS011;26344;45.532;9.232;2023-02-28T14:01:02;18.98;;;13.80;;
40653;SDS011;26344;45.532;9.232;2023-02-28T14:03:37;21.20;;;13.40;;
40653;SDS011;26344;45.532;9.232;2023-02-28T14:06:13;16.70;;;12.48;;
40653;SDS011;26344;45.532;9.232;2023-02-28T14:08:55;16.63;;;13.20;;
40653;SDS011;26344;45.532;9.232;2023-02-28T14:11:24;21.63;;;12.45;;
40653;SDS011;26344;45.532;9.232;2023-02-28T14:13:50;18.50;;;12.73;;
40653;SDS011;26344;45.532;9.232;2023-02-28T14:16:17;16.88;;;13.10;;
40653;SDS011;26344;45.532;9.232;2023-02-28T14:18:58;18.17;;;13.63;;
40653;SDS011;26344;45.532;9.232;2023-02-28T14:26:29;18.70;;;13.20;;
40653;SDS011;26344;45.532;9.232;2023-02-28T14:29:08;17.00;;;13.45;;
40653;SDS011;26344;45.532;9.232;2023-02-28T14:31:39;17.73;;;12.80;;
40653;SDS011;26344;45.532;9.232;2023-02-28T14:36:42;18.50;;;12.80;;
40653;SDS011;26344;45.532;9.232;2023-02-28T14:39:12;16.70;;;13.07;;
40653;SDS011;26344;45.532;9.232;2023-02-28T14:53:58;16.27;;;12.30;;
40653;SDS011;26344;45.532;9.232;2023-02-28T14:56:26;20.63;;;12.40;;
40653;SDS011;26344;45.532;9.232;2023-02-28T14:58:54;17.58;;;12.70;;
40653;SDS011;26344;45.532;9.232;2023-02-28T15:07:28;19.13;;;12.88;;
40653;SDS011;26344;45.532;9.232;2023-02-28T15:22:13;18.17;;;14.45;;
40653;SDS011;26344;45.532;9.232;2023-02-28T15:24:46;16.55;;;13.48;;
40653;SDS011;26344;45.532;9.232;2023-02-28T15:27:19;16.77;;;13.32;;
40653;SDS011;26344;45.532;9.232;2023-02-28T15:29:47;21.55;;;12.95;;
40653;SDS011;26344;45.532;9.232;2023-02-28T15:42:19;17.10;;;13.25;;
40653;SDS011;26344;45.532;9.232;2023-02-28T15:44:45;17.17;;;13.18;;
40653;SDS011;26344;45.532;9.232;2023-02-28T15:53:18;19.45;;;13.55;;
40653;SDS011;26344;45.532;9.232;2023-02-28T15:55:45;19.25;;;14.18;;
40653;SDS011;26344;45.532;9.232;2023-02-28T16:07:33;18.08;;;13.93;;
40653;SDS011;26344;45.532;9.232;2023-02-28T16:09:59;19.30;;;14.32;;
40653;SDS011;26344;45.532;9.232;2023-02-28T16:12:27;19.92;;;14.80;;
40653;SDS011;26344;45.532;9.232;2023-02-28T16:14:53;18.17;;;14.02;;
40653;SDS011;26344;45.532;9.232;2023-02-28T16:17:26;18.90;;;14.30;;
40653;SDS011;26344;45.532;9.232;2023-02-28T16:19:53;21.75;;;14.43;;
40653;SDS011;26344;45.532;9.232;2023-02-28T16:22:19;18.73;;;13.77;;
40653;SDS011;26344;45.532;9.232;2023-02-28T16:24:45;20.98;;;14.27;;
40653;SDS011;26344;45.532;9.232;2023-02-28T16:27:18;21.23;;;14.32;;
40653;SDS011;26344;45.532;9.232;2023-02-28T16:29:46;18.33;;;13.88;;
40653;SDS011;26344;45.532;9.232;2023-02-28T16:32:14;19.70;;;14.32;;
40653;SDS011;26344;45.532;9.232;2023-02-28T16:34:41;19.65;;;14.18;;
40653;SDS011;26344;45.532;9.232;2023-02-28T16:37:13;18.27;;;13.95;;
40653;SDS011;26344;45.532;9.232;2023-02-28T16:39:40;18.67;;;14.10;;
40653;SDS011;26344;45.532;9.232;2023-02-28T16:42:09;20.60;;;14.82;;
40653;SDS011;26344;45.532;9.232;2023-02-28T16:47:03;20.05;;;14.13;;
40653;SDS011;26344;45.532;9.232;2023-02-28T16:49:32;18.30;;;13.95;;
40653;SDS011;26344;45.532;9.232;2023-02-28T16:51:58;22.25;;;14.05;;
40653;SDS011;26344;45.532;9.232;2023-02-28T16:54:24;21.08;;;15.13;;
40653;SDS011;26344;45.532;9.232;2023-02-28T16:56:51;20.38;;;15.32;;
40653;SDS011;26344;45.532;9.232;2023-02-28T16:59:22;21.85;;;15.38;;
40653;SDS011;26344;45.532;9.232;2023-02-28T17:01:49;19.73;;;14.27;;
40653;SDS011;26344;45.532;9.232;2023-02-28T17:04:15;19.80;;;14.35;;
40653;SDS011;26344;45.532;9.232;2023-02-28T17:06:41;25.83;;;15.25;;
40653;SDS011;26344;45.532;9.232;2023-02-28T17:09:08;21.25;;;15.43;;
40653;SDS011;26344;45.532;9.232;2023-02-28T17:11:40;21.20;;;15.15;;
40653;SDS011;26344;45.532;9.232;2023-02-28T17:14:06;20.15;;;14.52;;
40653;SDS011;26344;45.532;9.232;2023-02-28T17:16:33;22.95;;;14.52;;
40653;SDS011;26344;45.532;9.232;2023-02-28T17:19:00;20.63;;;15.30;;
40653;SDS011;26344;45.532;9.232;2023-02-28T17:21:26;23.35;;;15.18;;
40653;SDS011;26344;45.532;9.232;2023-02-28T17:23:53;22.55;;;14.77;;
40653;SDS011;26344;45.532;9.232;2023-02-28T17:26:22;22.20;;;15.73;;
40653;SDS011;26344;45.532;9.232;2023-02-28T17:28:49;26.20;;;16.13;;
40653;SDS011;26344;45.532;9.232;2023-02-28T17:31:16;21.25;;;15.18;;
40653;SDS011;26344;45.532;9.232;2023-02-28T17:33:45;27.02;;;15.77;;